createdAt,value
2023-04-21T00:01:29.757Z,5.20
2023-04-21T00:06:24.494Z,5.00
2023-04-21T00:08:51.496Z,4.90
2023-04-21T00:13:46.496Z,4.80
2023-04-21T00:16:14.495Z,4.80
2023-04-21T00:23:36.416Z,5.20
2023-04-21T00:28:30.753Z,5.30
2023-04-21T00:30:58.925Z,5.30
2023-04-21T00:35:56.795Z,5.20
2023-04-21T00:38:23.753Z,5.30
2023-04-21T00:40:50.769Z,5.30
2023-04-21T00:45:48.376Z,5.20
2023-04-21T00:48:15.605Z,5.10
2023-04-21T00:50:44.782Z,5.00
2023-04-21T00:53:15.681Z,5.00
2023-04-21T01:00:39.589Z,4.90
2023-04-21T01:03:08.103Z,4.90
2023-04-21T01:05:36.094Z,4.90
2023-04-21T01:10:33.389Z,4.90
2023-04-21T01:15:30.865Z,4.80
2023-04-21T01:20:26.482Z,4.60
2023-04-21T01:22:53.544Z,4.60
2023-04-21T01:25:23.334Z,4.50
2023-04-21T01:27:50.363Z,4.50
2023-04-21T01:30:17.336Z,4.40
2023-04-21T01:32:44.567Z,4.40
2023-04-21T01:35:11.568Z,4.50
2023-04-21T01:37:39.652Z,4.90
2023-04-21T01:40:09.290Z,5.40
2023-04-21T01:42:43.109Z,5.70
2023-04-21T01:47:38.795Z,6.10
2023-04-21T01:50:08.092Z,6.20
2023-04-21T01:52:35.377Z,6.20
2023-04-21T01:55:02.784Z,6.40
2023-04-21T01:59:57.612Z,6.60
2023-04-21T02:02:25.046Z,6.60
2023-04-21T02:07:19.577Z,6.90
2023-04-21T02:09:46.721Z,6.90
2023-04-21T02:12:15.417Z,6.90
2023-04-21T02:14:42.718Z,6.90
2023-04-21T02:17:09.789Z,6.90
2023-04-21T02:19:37.598Z,6.80
2023-04-21T02:22:06.208Z,6.80
2023-04-21T02:24:33.220Z,6.80
2023-04-21T02:27:00.453Z,6.80
2023-04-21T02:32:03.337Z,5.90
2023-04-21T02:37:06.252Z,5.60
2023-04-21T02:46:56.540Z,5.10
2023-04-21T02:49:23.731Z,5.10
2023-04-21T02:51:50.864Z,5.00
2023-04-21T02:54:17.819Z,5.00
2023-04-21T02:59:16.493Z,5.00
2023-04-21T03:04:11.473Z,5.00
2023-04-21T03:06:38.577Z,5.00
2023-04-21T03:09:06.235Z,5.00
2023-04-21T03:11:33.249Z,5.00
2023-04-21T03:26:17.720Z,6.00
2023-04-21T03:28:45.831Z,6.10
2023-04-21T03:31:13.524Z,6.00
2023-04-21T03:33:40.563Z,5.60
2023-04-21T03:36:08.239Z,5.60
2023-04-21T03:41:04.873Z,5.70
2023-04-21T03:43:31.928Z,5.80
2023-04-21T03:48:29.366Z,6.10
2023-04-21T03:50:56.389Z,6.20
2023-04-21T03:53:23.595Z,6.20
2023-04-21T03:55:51.293Z,6.20
2023-04-21T03:58:18.576Z,6.20
2023-04-21T04:00:45.672Z,6.20
2023-04-21T04:03:12.753Z,6.20
2023-04-21T04:05:40.404Z,6.20
2023-04-21T04:10:34.872Z,6.20
2023-04-21T04:15:29.329Z,6.20
2023-04-21T04:17:56.546Z,6.10
2023-04-21T04:22:51.349Z,5.70
2023-04-21T04:25:48.031Z,5.50
2023-04-21T04:28:15.961Z,5.30
2023-04-21T04:30:43.702Z,5.30
2023-04-21T04:33:11.594Z,5.20
2023-04-21T04:35:38.793Z,5.20
2023-04-21T04:38:07.488Z,5.00
2023-04-21T04:52:56.159Z,6.60
2023-04-21T04:55:23.456Z,6.80
2023-04-21T04:57:50.497Z,6.90
2023-04-21T05:00:18.262Z,6.90
2023-04-21T05:02:45.693Z,6.90
2023-04-21T05:07:40.515Z,6.90
2023-04-21T05:10:08.683Z,6.90
2023-04-21T05:20:00.516Z,7.40
2023-04-21T05:27:22.488Z,7.90
2023-04-21T05:29:49.598Z,8.00
2023-04-21T05:37:12.238Z,8.20
2023-04-21T05:39:39.348Z,8.30
2023-04-21T05:42:06.600Z,8.40
2023-04-21T05:47:01.117Z,8.50
2023-04-21T05:51:55.648Z,8.50
2023-04-21T05:59:17.618Z,8.50
2023-04-21T06:04:12.270Z,8.60
2023-04-21T06:06:39.481Z,8.60
2023-04-21T06:14:02.301Z,8.80
2023-04-21T06:16:32.277Z,8.80
2023-04-21T06:18:59.967Z,8.90
2023-04-21T06:21:27.162Z,8.90
2023-04-21T06:23:54.212Z,8.90
2023-04-21T06:28:48.641Z,9.10
2023-04-21T06:31:16.340Z,9.50
2023-04-21T06:33:43.692Z,9.90
2023-04-21T06:36:10.853Z,10.30
2023-04-21T06:38:39.803Z,10.70
2023-04-21T06:43:34.279Z,11.30
2023-04-21T06:46:01.292Z,11.40
2023-04-21T06:48:29.826Z,12.00
2023-04-21T06:50:56.798Z,12.10
2023-04-21T06:53:23.973Z,12.00
2023-04-21T06:55:52.872Z,12.10
2023-04-21T06:58:21.326Z,12.30
2023-04-21T07:00:48.618Z,12.10
2023-04-21T07:03:15.783Z,12.10
2023-04-21T07:05:43.533Z,12.20
2023-04-21T07:10:37.986Z,12.40
2023-04-21T07:15:32.433Z,12.80
2023-04-21T07:17:59.628Z,13.00
2023-04-21T07:22:54.178Z,13.00
2023-04-21T07:25:21.304Z,13.20
2023-04-21T07:27:48.302Z,13.30
2023-04-21T07:30:15.600Z,13.30
2023-04-21T07:35:10.759Z,13.70
2023-04-21T07:37:37.799Z,14.00
2023-04-21T07:40:05.662Z,13.80
2023-04-21T07:42:33.172Z,13.60
2023-04-21T07:45:02.330Z,13.90
2023-04-21T07:47:29.626Z,14.40
2023-04-21T07:49:56.706Z,14.80
2023-04-21T07:54:51.914Z,14.20
2023-04-21T07:57:19.060Z,14.30
2023-04-21T07:59:46.297Z,14.40
2023-04-21T08:03:58.392Z,14.70
2023-04-21T08:06:25.763Z,14.50
2023-04-21T08:11:22.252Z,13.80
2023-04-21T08:13:50.255Z,13.70
2023-04-21T08:16:17.397Z,13.90
2023-04-21T08:21:11.954Z,14.00
2023-04-21T08:23:38.916Z,13.60
2023-04-21T08:28:33.801Z,13.90
2023-04-21T08:33:29.186Z,15.10
2023-04-21T08:38:28.678Z,16.30
2023-04-21T08:40:59.795Z,16.00
2023-04-21T08:48:25.689Z,16.30
2023-04-21T08:50:53.733Z,16.60
2023-04-21T08:53:21.541Z,16.40
2023-04-21T08:56:09.469Z,16.40
2023-04-21T09:01:06.153Z,16.60
2023-04-21T09:03:33.394Z,17.10
2023-04-21T09:06:08.994Z,17.20
2023-04-21T09:08:53.134Z,16.90
2023-04-21T09:11:20.152Z,16.90
2023-04-21T09:13:47.187Z,16.90
2023-04-21T09:16:23.446Z,17.50
2023-04-21T09:18:51.298Z,17.60
2023-04-21T09:21:20.682Z,17.40
2023-04-21T09:23:52.285Z,16.90
2023-04-21T09:26:24.729Z,17.30
2023-04-21T09:28:54.385Z,17.60
2023-04-21T09:31:25.110Z,17.20
2023-04-21T09:34:00.326Z,17.40
2023-04-21T09:36:31.590Z,18.10
2023-04-21T09:41:34.597Z,18.40
2023-04-21T09:46:36.050Z,18.60
2023-04-21T09:51:56.216Z,18.80
2023-04-21T09:56:59.234Z,18.80
2023-04-21T09:59:33.523Z,18.80
2023-04-21T10:02:02.108Z,18.50
2023-04-21T10:04:33.238Z,18.90
2023-04-21T10:07:01.927Z,19.00
2023-04-21T10:09:43.096Z,18.90
2023-04-21T10:12:13.305Z,18.60
2023-04-21T10:14:40.348Z,18.30
2023-04-21T10:17:10.499Z,17.90
2023-04-21T10:19:57.440Z,18.90
2023-04-21T10:22:34.144Z,18.90
2023-04-21T10:25:04.564Z,18.80
2023-04-21T10:27:41.693Z,18.50
2023-04-21T10:30:27.366Z,19.00
2023-04-21T10:33:07.446Z,19.20
2023-04-21T10:36:02.032Z,20.20
2023-04-21T10:38:57.281Z,20.40
2023-04-21T10:41:33.411Z,19.70
2023-04-21T10:44:09.759Z,19.70
2023-04-21T10:46:38.538Z,20.20
2023-04-21T10:49:30.524Z,20.20
2023-04-21T10:52:03.395Z,20.00
2023-04-21T10:55:02.760Z,20.10
2023-04-21T10:57:34.506Z,19.80
2023-04-21T11:00:06.816Z,19.70
2023-04-21T11:02:38.962Z,20.30
2023-04-21T11:05:10.355Z,20.50
2023-04-21T11:07:37.585Z,20.50
2023-04-21T11:10:08.984Z,20.20
2023-04-21T11:12:40.762Z,20.10
2023-04-21T11:15:15.174Z,20.20
2023-04-21T11:17:47.031Z,20.10
2023-04-21T11:20:14.267Z,20.10
2023-04-21T11:22:41.261Z,20.40
2023-04-21T11:25:18.348Z,21.10
2023-04-21T11:27:59.899Z,20.60
2023-04-21T11:30:35.422Z,20.50
2023-04-21T11:33:03.085Z,20.50
2023-04-21T11:37:58.633Z,20.00
2023-04-21T11:40:25.627Z,20.30
2023-04-21T11:42:53.178Z,21.20
2023-04-21T11:45:22.390Z,21.60
2023-04-21T11:47:49.899Z,21.20
2023-04-21T11:50:33.929Z,21.30
2023-04-21T11:53:02.857Z,21.20
2023-04-21T11:55:30.014Z,21.00
2023-04-21T11:57:57.771Z,20.00
2023-04-21T12:00:30.758Z,20.50
2023-04-21T12:02:58.461Z,21.40
2023-04-21T12:05:25.979Z,21.50
2023-04-21T12:07:56.826Z,21.40
2023-04-21T12:10:24.106Z,21.40
2023-04-21T12:12:51.615Z,20.80
2023-04-21T12:15:22.948Z,21.40
2023-04-21T12:17:54.478Z,21.50
2023-04-21T12:20:25.444Z,22.20
2023-04-21T12:22:53.300Z,21.70
2023-04-21T12:25:20.363Z,21.60
2023-04-21T12:27:59.117Z,21.80
2023-04-21T12:30:26.275Z,21.60
2023-04-21T12:32:55.625Z,21.80
2023-04-21T12:35:24.085Z,21.50
2023-04-21T12:37:51.016Z,21.50
2023-04-21T12:40:18.617Z,21.10
2023-04-21T12:42:45.715Z,21.20
2023-04-21T12:45:14.274Z,21.10
2023-04-21T12:47:43.493Z,21.00
2023-04-21T12:50:12.554Z,21.20
2023-04-21T12:52:39.778Z,21.70
2023-04-21T12:55:07.871Z,22.20
2023-04-21T12:57:34.855Z,22.10
2023-04-21T13:00:01.845Z,22.00
2023-04-21T13:02:30.773Z,22.30
2023-04-21T13:04:57.925Z,22.30
2023-04-21T13:09:54.127Z,21.80
2023-04-21T13:12:21.281Z,21.90
2023-04-21T13:14:48.298Z,22.40
2023-04-21T13:17:16.731Z,22.20
2023-04-21T13:19:44.032Z,22.00
2023-04-21T13:27:06.060Z,21.80
2023-04-21T13:32:07.032Z,21.20
2023-04-21T13:34:34.906Z,20.70
2023-04-21T13:37:02.470Z,20.70
2023-04-21T13:46:53.729Z,21.00
2023-04-21T13:49:21.012Z,21.30
2023-04-21T13:51:48.054Z,21.10
2023-04-21T13:54:15.448Z,21.10
2023-04-21T13:56:42.745Z,21.00
2023-04-21T13:59:10.821Z,20.90
2023-04-21T14:01:37.970Z,21.30
2023-04-21T14:04:05.423Z,21.50
2023-04-21T14:06:33.018Z,21.20
2023-04-21T14:09:00.511Z,21.70
2023-04-21T14:11:27.558Z,21.20
2023-04-21T14:16:36.409Z,21.80
2023-04-21T14:19:03.749Z,20.60
2023-04-21T14:26:27.461Z,21.70
2023-04-21T14:28:54.564Z,21.80
2023-04-21T14:31:22.427Z,21.80
2023-04-21T14:33:49.544Z,21.60
2023-04-21T14:36:16.653Z,21.40
2023-04-21T14:41:15.744Z,20.90
2023-04-21T14:43:43.082Z,21.00
2023-04-21T14:46:11.956Z,21.30
2023-04-21T14:48:39.385Z,21.40
2023-04-21T14:51:09.230Z,21.30
2023-04-21T14:53:36.423Z,21.60
2023-04-21T14:56:03.779Z,21.80
2023-04-21T14:58:30.773Z,21.50
2023-04-21T15:03:26.100Z,21.40
2023-04-21T15:05:54.233Z,21.30
2023-04-21T15:08:21.360Z,20.90
2023-04-21T15:15:43.250Z,20.50
2023-04-21T15:18:10.428Z,20.70
2023-04-21T15:23:13.166Z,21.20
2023-04-21T15:25:40.908Z,21.40
2023-04-21T15:28:08.498Z,21.90
2023-04-21T15:30:35.837Z,21.20
2023-04-21T15:35:31.001Z,21.40
2023-04-21T15:37:58.033Z,21.30
2023-04-21T15:42:52.792Z,21.00
2023-04-21T15:50:15.126Z,20.60
2023-04-21T15:52:43.304Z,20.70
2023-04-21T15:55:13.844Z,20.60
2023-04-21T15:57:40.885Z,20.60
2023-04-21T16:00:12.511Z,19.80
2023-04-21T16:05:09.064Z,19.30
2023-04-21T16:07:36.270Z,19.20
2023-04-21T16:10:03.917Z,19.00
2023-04-21T16:15:06.325Z,18.80
2023-04-21T16:17:43.607Z,18.70
2023-04-21T16:20:12.274Z,18.50
2023-04-21T16:22:39.486Z,18.50
2023-04-21T16:32:30.675Z,18.40
2023-04-21T16:34:58.174Z,18.40
2023-04-21T16:42:20.157Z,18.30
2023-04-21T16:44:47.406Z,18.30
2023-04-21T16:49:41.868Z,18.20
2023-04-21T16:52:09.010Z,18.20
2023-04-21T16:59:33.054Z,18.00
2023-04-21T17:04:27.929Z,18.00
2023-04-21T17:06:54.953Z,17.90
2023-04-21T17:11:49.436Z,17.70
2023-04-21T17:14:16.428Z,17.60
2023-04-21T17:16:43.519Z,17.40
2023-04-21T17:19:10.587Z,17.30
2023-04-21T17:21:37.635Z,17.60
2023-04-21T17:26:32.667Z,17.10
2023-04-21T17:29:00.304Z,17.10
2023-04-21T17:31:30.507Z,16.90
2023-04-21T17:33:57.664Z,16.80
2023-04-21T17:36:27.527Z,16.80
2023-04-21T17:38:56.782Z,16.90
2023-04-21T17:41:25.583Z,16.80
2023-04-21T17:46:24.935Z,16.50
2023-04-21T17:48:52.673Z,16.00
2023-04-21T17:51:19.823Z,15.70
2023-04-21T17:56:18.718Z,15.30
2023-04-21T17:58:46.744Z,15.10
2023-04-21T18:01:14.049Z,14.80
2023-04-21T18:06:11.176Z,14.90
2023-04-21T18:08:38.634Z,14.90
2023-04-21T18:11:06.233Z,15.00
2023-04-21T18:13:33.936Z,15.00
2023-04-21T18:16:01.324Z,15.00
2023-04-21T18:18:28.643Z,15.00
2023-04-21T18:20:56.227Z,15.00
2023-04-21T18:25:50.936Z,14.90
2023-04-21T18:33:13.935Z,14.70
2023-04-21T18:35:42.305Z,14.70
2023-04-21T18:38:11.592Z,14.70
2023-04-21T18:43:09.746Z,14.70
2023-04-21T18:48:05.603Z,14.50
2023-04-21T18:53:03.648Z,14.00
2023-04-21T18:58:00.465Z,13.60
2023-04-21T19:00:27.452Z,13.50
2023-04-21T19:02:54.769Z,13.60
2023-04-21T19:07:49.667Z,13.60
2023-04-21T19:20:09.462Z,13.60
2023-04-21T19:22:37.612Z,13.60
2023-04-21T19:30:01.403Z,13.50
2023-04-21T19:32:28.548Z,13.40
2023-04-21T19:37:23.483Z,13.50
2023-04-21T19:39:51.484Z,13.50
2023-04-21T19:47:13.944Z,13.50
2023-04-21T19:54:36.077Z,13.40
2023-04-21T19:57:03.543Z,13.30
2023-04-21T20:06:55.759Z,13.30
2023-04-21T20:14:20.193Z,13.20
2023-04-21T20:16:47.486Z,13.20
2023-04-21T20:24:12.136Z,13.20
2023-04-21T20:31:34.187Z,13.10
2023-04-21T20:36:28.867Z,13.00
2023-04-21T20:38:57.124Z,12.90
2023-04-21T20:46:19.469Z,12.60
2023-04-21T20:48:46.656Z,12.50
2023-04-21T20:51:13.768Z,12.50
2023-04-21T20:53:41.735Z,12.50
2023-04-21T20:56:08.960Z,12.40
2023-04-21T20:58:36.549Z,12.30
2023-04-21T21:01:03.751Z,12.20
2023-04-21T21:08:26.101Z,12.10
2023-04-21T21:10:53.061Z,12.10
2023-04-21T21:15:47.604Z,11.90
2023-04-21T21:18:15.610Z,11.80
2023-04-21T21:20:42.768Z,11.90
2023-04-21T21:23:09.807Z,11.90
2023-04-21T21:25:36.832Z,11.80
2023-04-21T21:28:03.961Z,11.80
2023-04-21T21:30:32.013Z,11.80
2023-04-21T21:35:26.556Z,11.70
2023-04-21T21:40:29.352Z,11.70
2023-04-21T21:50:19.064Z,11.40
2023-04-21T21:57:41.933Z,11.90
2023-04-21T22:02:45.180Z,12.00
2023-04-21T22:07:43.555Z,12.10
2023-04-21T22:10:11.617Z,12.10
2023-04-21T22:12:39.730Z,12.10
2023-04-21T22:15:07.916Z,12.20
2023-04-21T22:17:35.934Z,12.00
2023-04-21T22:22:31.820Z,12.10
2023-04-21T22:37:16.858Z,12.10
2023-04-21T22:42:12.775Z,12.10
2023-04-21T22:44:40.871Z,12.00
2023-04-21T22:54:34.711Z,12.10
2023-04-21T22:59:29.222Z,12.10
2023-04-21T23:01:56.214Z,12.10
2023-04-21T23:04:23.296Z,12.00
2023-04-21T23:09:17.840Z,12.00
2023-04-21T23:11:44.957Z,12.10
2023-04-21T23:19:07.028Z,12.20
2023-04-21T23:26:28.893Z,12.20
2023-04-21T23:28:55.960Z,12.10
2023-04-21T23:38:45.915Z,12.20
2023-04-21T23:43:40.529Z,12.00
2023-04-21T23:51:02.732Z,11.90
2023-04-21T23:58:25.506Z,11.60
